sim
Sign-in with your pilot id or email,
or register
Callsign
Passwort

Schedule Details

Flight Number: DLH1623
Departure: Krakow John Paul II International Airport (EPKK) at 12:30
Arrival: Munich Airport (EDDM) at 13:50
Route: Lufthansa Passenger Schedule. Enter filed route here before submitting Pirep.

Weather Information
Getting current METAR information for EPKK 221300Z 15005KT 120V250 CAVOK 25/09 Q1016
Getting current METAR information for EDDM 221320Z 05004KT 340V140 9999 FEW040 24/14 Q1012 NOSIG

Schedule Frequency

Route Map